sensor_id;sensor_type;location;lat;lon;timestamp;temperature;humidity
46123;DHT22;31856;-35.404;149.120;2023-08-07T02:09:22;12.20;57.60
46123;DHT22;31856;-35.404;149.120;2023-08-07T02:11:52;12.20;58.00
46123;DHT22;31856;-35.404;149.120;2023-08-07T02:14:23;12.30;58.40
46123;DHT22;31856;-35.404;149.120;2023-08-07T02:16:53;12.30;58.10
46123;DHT22;31856;-35.404;149.120;2023-08-07T02:19:23;12.30;57.30
46123;DHT22;31856;-35.404;149.120;2023-08-07T02:21:53;12.40;57.70
46123;DHT22;31856;-35.404;149.120;2023-08-07T02:24:22;12.50;57.20
46123;DHT22;31856;-35.404;149.120;2023-08-07T02:26:52;12.60;57.10
46123;DHT22;31856;-35.404;149.120;2023-08-07T02:29:23;12.60;57.30
46123;DHT22;31856;-35.404;149.120;2023-08-07T02:31:52;12.40;57.20
46123;DHT22;31856;-35.404;149.120;2023-08-07T02:34:22;12.40;57.40
46123;DHT22;31856;-35.404;149.120;2023-08-07T02:36:51;12.60;57.10
46123;DHT22;31856;-35.404;149.120;2023-08-07T02:39:22;12.70;56.90
46123;DHT22;31856;-35.404;149.120;2023-08-07T02:41:52;12.70;57.20
46123;DHT22;31856;-35.404;149.120;2023-08-07T02:44:22;12.60;57.40
46123;DHT22;31856;-35.404;149.120;2023-08-07T02:46:51;12.60;57.50
46123;DHT22;31856;-35.404;149.120;2023-08-07T02:49:22;12.60;57.60
46123;DHT22;31856;-35.404;149.120;2023-08-07T02:51:51;12.50;58.30
46123;DHT22;31856;-35.404;149.120;2023-08-07T02:54:20;12.70;58.00
46123;DHT22;31856;-35.404;149.120;2023-08-07T02:56:50;12.70;58.20
46123;DHT22;31856;-35.404;149.120;2023-08-07T02:59:20;12.70;58.50
46123;DHT22;31856;-35.404;149.120;2023-08-07T03:01:50;12.70;57.90
46123;DHT22;31856;-35.404;149.120;2023-08-07T03:04:19;12.80;58.30
46123;DHT22;31856;-35.404;149.120;2023-08-07T03:06:49;12.90;58.60
46123;DHT22;31856;-35.404;149.120;2023-08-07T04:48:03;12.80;60.40
46123;DHT22;31856;-35.404;149.120;2023-08-07T04:50:33;12.80;59.60
46123;DHT22;31856;-35.404;149.120;2023-08-07T04:53:04;12.90;60.00
46123;DHT22;31856;-35.404;149.120;2023-08-07T04:55:33;13.10;59.80
46123;DHT22;31856;-35.404;149.120;2023-08-07T04:58:03;13.30;59.00
46123;DHT22;31856;-35.404;149.120;2023-08-07T05:00:33;13.30;58.90
46123;DHT22;31856;-35.404;149.120;2023-08-07T05:03:03;13.20;58.90
46123;DHT22;31856;-35.404;149.120;2023-08-07T05:05:33;13.10;59.10
46123;DHT22;31856;-35.404;149.120;2023-08-07T05:08:08;13.00;59.60
46123;DHT22;31856;-35.404;149.120;2023-08-07T05:10:38;13.00;59.90
46123;DHT22;31856;-35.404;149.120;2023-08-07T05:13:07;13.00;60.40
46123;DHT22;31856;-35.404;149.120;2023-08-07T05:15:37;13.00;59.90
46123;DHT22;31856;-35.404;149.120;2023-08-07T05:18:07;13.10;60.00
46123;DHT22;31856;-35.404;149.120;2023-08-07T05:20:38;13.20;60.00
46123;DHT22;31856;-35.404;149.120;2023-08-07T05:23:07;13.30;59.70
46123;DHT22;31856;-35.404;149.120;2023-08-07T05:28:47;13.50;59.50
46123;DHT22;31856;-35.404;149.120;2023-08-07T05:31:38;13.60;59.50
46123;DHT22;31856;-35.404;149.120;2023-08-07T05:34:11;13.70;59.20
46123;DHT22;31856;-35.404;149.120;2023-08-07T05:36:54;13.80;58.30
46123;DHT22;31856;-35.404;149.120;2023-08-07T05:39:23;13.90;58.10
46123;DHT22;31856;-35.404;149.120;2023-08-07T05:41:53;14.00;58.20
46123;DHT22;31856;-35.404;149.120;2023-08-07T05:45:04;14.00;57.70
46123;DHT22;31856;-35.404;149.120;2023-08-07T05:47:37;14.10;57.90
46123;DHT22;31856;-35.404;149.120;2023-08-07T05:50:12;14.20;57.40
46123;DHT22;31856;-35.404;149.120;2023-08-07T05:53:09;14.20;57.30
46123;DHT22;31856;-35.404;149.120;2023-08-07T05:59:25;14.30;56.40
46123;DHT22;31856;-35.404;149.120;2023-08-07T06:12:32;14.10;57.30
46123;DHT22;31856;-35.404;149.120;2023-08-07T06:15:43;14.00;58.20
46123;DHT22;31856;-35.404;149.120;2023-08-07T06:18:30;13.90;58.90
46123;DHT22;31856;-35.404;149.120;2023-08-07T06:21:08;13.80;59.40
46123;DHT22;31856;-35.404;149.120;2023-08-07T06:54:32;12.80;61.70
46123;DHT22;31856;-35.404;149.120;2023-08-07T06:57:02;12.70;61.90
46123;DHT22;31856;-35.404;149.120;2023-08-07T06:59:31;12.70;62.40
46123;DHT22;31856;-35.404;149.120;2023-08-07T07:02:01;12.60;62.60
46123;DHT22;31856;-35.404;149.120;2023-08-07T07:04:41;12.50;62.90
46123;DHT22;31856;-35.404;149.120;2023-08-07T07:07:16;12.50;63.00
46123;DHT22;31856;-35.404;149.120;2023-08-07T07:09:48;12.40;63.30
46123;DHT22;31856;-35.404;149.120;2023-08-07T07:12:18;12.30;63.40
46123;DHT22;31856;-35.404;149.120;2023-08-07T07:14:48;12.20;63.60
46123;DHT22;31856;-35.404;149.120;2023-08-07T07:17:17;12.20;63.90
46123;DHT22;31856;-35.404;149.120;2023-08-07T07:19:47;12.10;64.20
46123;DHT22;31856;-35.404;149.120;2023-08-07T07:22:16;12.00;64.60
46123;DHT22;31856;-35.404;149.120;2023-08-07T07:24:46;11.90;64.70
46123;DHT22;31856;-35.404;149.120;2023-08-07T07:27:15;11.80;65.00
46123;DHT22;31856;-35.404;149.120;2023-08-07T07:29:49;11.80;65.30
46123;DHT22;31856;-35.404;149.120;2023-08-07T07:32:19;11.70;65.80
46123;DHT22;31856;-35.404;149.120;2023-08-07T07:34:48;11.60;66.10
46123;DHT22;31856;-35.404;149.120;2023-08-07T07:37:18;11.60;66.20
46123;DHT22;31856;-35.404;149.120;2023-08-07T07:39:48;11.50;66.40
46123;DHT22;31856;-35.404;149.120;2023-08-07T07:42:18;11.40;66.70
46123;DHT22;31856;-35.404;149.120;2023-08-07T07:44:48;11.30;67.30
46123;DHT22;31856;-35.404;149.120;2023-08-07T07:47:17;11.30;67.60
46123;DHT22;31856;-35.404;149.120;2023-08-07T07:50:03;11.30;68.00
46123;DHT22;31856;-35.404;149.120;2023-08-07T08:19:29;10.80;70.70
46123;DHT22;31856;-35.404;149.120;2023-08-07T08:22:16;10.70;71.10
46123;DHT22;31856;-35.404;149.120;2023-08-07T08:24:56;10.60;71.20
46123;DHT22;31856;-35.404;149.120;2023-08-07T08:28:02;10.50;71.60
46123;DHT22;31856;-35.404;149.120;2023-08-07T08:30:32;10.50;71.90
46123;DHT22;31856;-35.404;149.120;2023-08-07T08:33:01;10.40;72.10
46123;DHT22;31856;-35.404;149.120;2023-08-07T08:35:32;10.30;72.20
46123;DHT22;31856;-35.404;149.120;2023-08-07T08:38:02;10.30;72.30
46123;DHT22;31856;-35.404;149.120;2023-08-07T08:40:33;10.30;72.30
46123;DHT22;31856;-35.404;149.120;2023-08-07T08:43:04;10.20;72.50
46123;DHT22;31856;-35.404;149.120;2023-08-07T08:45:34;10.20;72.60
46123;DHT22;31856;-35.404;149.120;2023-08-07T08:48:07;10.20;72.40
46123;DHT22;31856;-35.404;149.120;2023-08-07T08:50:37;10.20;72.50
46123;DHT22;31856;-35.404;149.120;2023-08-07T08:53:07;10.10;72.70
46123;DHT22;31856;-35.404;149.120;2023-08-07T08:55:38;10.00;73.10
46123;DHT22;31856;-35.404;149.120;2023-08-07T08:58:12;10.00;73.10
46123;DHT22;31856;-35.404;149.120;2023-08-07T09:00:42;10.00;73.20
46123;DHT22;31856;-35.404;149.120;2023-08-07T09:03:12;9.90;73.20
46123;DHT22;31856;-35.404;149.120;2023-08-07T09:05:42;9.90;73.20
46123;DHT22;31856;-35.404;149.120;2023-08-07T09:08:14;9.80;73.00
46123;DHT22;31856;-35.404;149.120;2023-08-07T09:10:44;9.80;73.10
46123;DHT22;31856;-35.404;149.120;2023-08-07T09:13:14;9.70;73.10
46123;DHT22;31856;-35.404;149.120;2023-08-07T09:15:44;9.60;73.20
46123;DHT22;31856;-35.404;149.120;2023-08-07T10:34:52;8.10;76.10
46123;DHT22;31856;-35.404;149.120;2023-08-07T10:37:32;8.00;76.10
46123;DHT22;31856;-35.404;149.120;2023-08-07T10:40:04;8.00;75.90
46123;DHT22;31856;-35.404;149.120;2023-08-07T10:45:23;7.80;75.90
46123;DHT22;31856;-35.404;149.120;2023-08-07T10:48:05;7.80;75.90
46123;DHT22;31856;-35.404;149.120;2023-08-07T10:50:49;7.80;75.90
46123;DHT22;31856;-35.404;149.120;2023-08-07T10:53:20;7.80;75.80
46123;DHT22;31856;-35.404;149.120;2023-08-07T10:55:50;7.70;76.60
46123;DHT22;31856;-35.404;149.120;2023-08-07T10:58:21;7.70;76.80
46123;DHT22;31856;-35.404;149.120;2023-08-07T11:03:42;7.50;76.90
46123;DHT22;31856;-35.404;149.120;2023-08-07T11:06:11;7.50;77.30
46123;DHT22;31856;-35.404;149.120;2023-08-07T11:08:41;7.50;77.80
46123;DHT22;31856;-35.404;149.120;2023-08-07T11:11:12;7.50;78.00
46123;DHT22;31856;-35.404;149.120;2023-08-07T11:13:42;7.50;78.00
46123;DHT22;31856;-35.404;149.120;2023-08-07T11:16:16;7.50;78.10
46123;DHT22;31856;-35.404;149.120;2023-08-07T11:18:47;7.50;78.00
46123;DHT22;31856;-35.404;149.120;2023-08-07T12:15:31;7.00;79.00
46123;DHT22;31856;-35.404;149.120;2023-08-07T12:18:01;6.90;79.20
46123;DHT22;31856;-35.404;149.120;2023-08-07T12:20:32;6.90;79.20
46123;DHT22;31856;-35.404;149.120;2023-08-07T12:23:01;6.90;79.60
46123;DHT22;31856;-35.404;149.120;2023-08-07T12:25:31;6.90;79.50
46123;DHT22;31856;-35.404;149.120;2023-08-07T12:28:00;6.90;79.50
46123;DHT22;31856;-35.404;149.120;2023-08-07T12:30:33;6.80;79.80
46123;DHT22;31856;-35.404;149.120;2023-08-07T12:33:03;6.80;79.90
46123;DHT22;31856;-35.404;149.120;2023-08-07T12:35:34;6.80;79.90
46123;DHT22;31856;-35.404;149.120;2023-08-07T12:38:03;6.80;80.10
46123;DHT22;31856;-35.404;149.120;2023-08-07T12:40:33;6.80;79.50
46123;DHT22;31856;-35.404;149.120;2023-08-07T12:43:07;6.70;79.40
46123;DHT22;31856;-35.404;149.120;2023-08-07T12:45:36;6.70;79.30
46123;DHT22;31856;-35.404;149.120;2023-08-07T12:48:09;6.70;79.50
46123;DHT22;31856;-35.404;149.120;2023-08-07T12:50:39;6.70;79.40
46123;DHT22;31856;-35.404;149.120;2023-08-07T12:53:09;6.60;79.40
46123;DHT22;31856;-35.404;149.120;2023-08-07T12:55:38;6.50;79.30
46123;DHT22;31856;-35.404;149.120;2023-08-07T12:58:08;6.40;79.20
46123;DHT22;31856;-35.404;149.120;2023-08-07T13:00:37;6.40;79.10
46123;DHT22;31856;-35.404;149.120;2023-08-07T13:03:07;6.40;79.20
46123;DHT22;31856;-35.404;149.120;2023-08-07T13:05:36;6.40;79.00
46123;DHT22;31856;-35.404;149.120;2023-08-07T13:08:06;6.40;79.00
46123;DHT22;31856;-35.404;149.120;2023-08-07T13:10:36;6.30;79.00
46123;DHT22;31856;-35.404;149.120;2023-08-07T13:13:06;6.30;78.70
